sensor_id;sensor_type;location;lat;lon;timestamp;temperature;humidity
66568;DHT22;53422;49.296;6.900;2023-09-08T00:00:15;20.50;99.90
66568;DHT22;53422;49.296;6.900;2023-09-08T00:02:41;20.40;99.90
66568;DHT22;53422;49.296;6.900;2023-09-08T00:05:07;20.40;99.90
66568;DHT22;53422;49.296;6.900;2023-09-08T00:07:32;20.40;99.90
66568;DHT22;53422;49.296;6.900;2023-09-08T00:09:58;20.40;99.90
66568;DHT22;53422;49.296;6.900;2023-09-08T00:12:23;20.40;99.90
66568;DHT22;53422;49.296;6.900;2023-09-08T00:14:49;20.40;99.90
66568;DHT22;53422;49.296;6.900;2023-09-08T00:17:14;20.40;99.90
66568;DHT22;53422;49.296;6.900;2023-09-08T00:19:40;20.30;99.90
66568;DHT22;53422;49.296;6.900;2023-09-08T00:22:06;20.30;99.90
66568;DHT22;53422;49.296;6.900;2023-09-08T00:24:32;20.30;99.90
66568;DHT22;53422;49.296;6.900;2023-09-08T00:26:58;20.30;99.90
66568;DHT22;53422;49.296;6.900;2023-09-08T00:29:23;20.30;99.90
66568;DHT22;53422;49.296;6.900;2023-09-08T00:31:49;20.30;99.90
66568;DHT22;53422;49.296;6.900;2023-09-08T00:34:15;20.20;99.90
66568;DHT22;53422;49.296;6.900;2023-09-08T00:36:40;20.20;99.90
66568;DHT22;53422;49.296;6.900;2023-09-08T00:39:06;20.20;99.90
66568;DHT22;53422;49.296;6.900;2023-09-08T00:41:31;20.20;99.90
66568;DHT22;53422;49.296;6.900;2023-09-08T00:43:57;20.20;99.90
66568;DHT22;53422;49.296;6.900;2023-09-08T00:46:22;20.20;99.90
66568;DHT22;53422;49.296;6.900;2023-09-08T00:48:49;20.10;99.90
66568;DHT22;53422;49.296;6.900;2023-09-08T00:51:14;20.20;99.90
66568;DHT22;53422;49.296;6.900;2023-09-08T00:53:40;20.10;99.90
66568;DHT22;53422;49.296;6.900;2023-09-08T00:56:07;20.10;99.90
66568;DHT22;53422;49.296;6.900;2023-09-08T00:58:34;20.10;99.90
66568;DHT22;53422;49.296;6.900;2023-09-08T01:01:02;20.10;99.90
66568;DHT22;53422;49.296;6.900;2023-09-08T01:03:27;20.10;99.90
66568;DHT22;53422;49.296;6.900;2023-09-08T01:05:53;20.10;99.90
66568;DHT22;53422;49.296;6.900;2023-09-08T01:08:19;20.00;99.90
66568;DHT22;53422;49.296;6.900;2023-09-08T01:10:46;20.10;99.90
66568;DHT22;53422;49.296;6.900;2023-09-08T01:13:11;20.00;99.90
66568;DHT22;53422;49.296;6.900;2023-09-08T01:15:37;20.00;99.90
66568;DHT22;53422;49.296;6.900;2023-09-08T01:18:03;20.00;99.90
66568;DHT22;53422;49.296;6.900;2023-09-08T01:20:48;20.00;99.90
66568;DHT22;53422;49.296;6.900;2023-09-08T01:23:21;20.00;99.90
66568;DHT22;53422;49.296;6.900;2023-09-08T01:28:17;20.00;99.90
66568;DHT22;53422;49.296;6.900;2023-09-08T01:30:44;19.90;99.90
66568;DHT22;53422;49.296;6.900;2023-09-08T01:33:11;19.90;99.90
66568;DHT22;53422;49.296;6.900;2023-09-08T01:35:36;19.90;99.90
66568;DHT22;53422;49.296;6.900;2023-09-08T01:38:02;19.90;99.90
66568;DHT22;53422;49.296;6.900;2023-09-08T01:40:28;19.90;99.90
66568;DHT22;53422;49.296;6.900;2023-09-08T01:42:53;19.90;99.90
66568;DHT22;53422;49.296;6.900;2023-09-08T01:45:19;19.90;99.90
66568;DHT22;53422;49.296;6.900;2023-09-08T01:47:45;19.90;99.90
66568;DHT22;53422;49.296;6.900;2023-09-08T01:50:10;19.90;99.90
66568;DHT22;53422;49.296;6.900;2023-09-08T01:52:36;19.80;99.90
66568;DHT22;53422;49.296;6.900;2023-09-08T01:55:02;19.80;99.90
66568;DHT22;53422;49.296;6.900;2023-09-08T01:57:27;19.80;99.90
66568;DHT22;53422;49.296;6.900;2023-09-08T01:59:53;19.80;99.90
66568;DHT22;53422;49.296;6.900;2023-09-08T02:02:18;19.80;99.90
66568;DHT22;53422;49.296;6.900;2023-09-08T02:04:44;19.80;99.90
66568;DHT22;53422;49.296;6.900;2023-09-08T02:07:10;19.80;99.90
66568;DHT22;53422;49.296;6.900;2023-09-08T02:09:37;19.80;99.90
66568;DHT22;53422;49.296;6.900;2023-09-08T02:12:03;19.80;99.90
66568;DHT22;53422;49.296;6.900;2023-09-08T02:14:29;19.80;99.90
66568;DHT22;53422;49.296;6.900;2023-09-08T02:16:56;19.80;99.90
66568;DHT22;53422;49.296;6.900;2023-09-08T02:19:22;19.80;99.90
66568;DHT22;53422;49.296;6.900;2023-09-08T02:21:47;19.70;99.90
66568;DHT22;53422;49.296;6.900;2023-09-08T02:24:13;19.70;99.90
66568;DHT22;53422;49.296;6.900;2023-09-08T02:26:39;19.70;99.90
66568;DHT22;53422;49.296;6.900;2023-09-08T02:29:05;19.70;99.90
66568;DHT22;53422;49.296;6.900;2023-09-08T02:31:31;19.70;99.90
66568;DHT22;53422;49.296;6.900;2023-09-08T02:33:56;19.70;99.90
66568;DHT22;53422;49.296;6.900;2023-09-08T02:36:22;19.60;99.90
66568;DHT22;53422;49.296;6.900;2023-09-08T02:38:54;19.60;99.90
66568;DHT22;53422;49.296;6.900;2023-09-08T02:41:20;19.60;99.90
66568;DHT22;53422;49.296;6.900;2023-09-08T02:43:46;19.60;99.90
66568;DHT22;53422;49.296;6.900;2023-09-08T02:46:12;19.60;99.90
66568;DHT22;53422;49.296;6.900;2023-09-08T02:48:38;19.60;99.90
66568;DHT22;53422;49.296;6.900;2023-09-08T02:51:03;19.60;99.90
66568;DHT22;53422;49.296;6.900;2023-09-08T02:53:29;19.60;99.90
66568;DHT22;53422;49.296;6.900;2023-09-08T02:55:56;19.60;99.90
66568;DHT22;53422;49.296;6.900;2023-09-08T02:58:22;19.50;99.90
66568;DHT22;53422;49.296;6.900;2023-09-08T03:00:48;19.60;99.90
66568;DHT22;53422;49.296;6.900;2023-09-08T03:03:13;19.50;99.90
66568;DHT22;53422;49.296;6.900;2023-09-08T03:05:39;19.50;99.90
66568;DHT22;53422;49.296;6.900;2023-09-08T03:08:05;19.50;99.90
66568;DHT22;53422;49.296;6.900;2023-09-08T03:10:31;19.50;99.90
66568;DHT22;53422;49.296;6.900;2023-09-08T03:13:00;19.50;99.90
66568;DHT22;53422;49.296;6.900;2023-09-08T03:15:26;19.50;99.90
66568;DHT22;53422;49.296;6.900;2023-09-08T03:17:54;19.50;99.90
66568;DHT22;53422;49.296;6.900;2023-09-08T03:20:20;19.40;99.90
66568;DHT22;53422;49.296;6.900;2023-09-08T03:22:45;19.40;99.90
66568;DHT22;53422;49.296;6.900;2023-09-08T03:25:13;19.40;99.90
66568;DHT22;53422;49.296;6.900;2023-09-08T03:27:39;19.40;99.90
66568;DHT22;53422;49.296;6.900;2023-09-08T03:30:06;19.40;99.90
66568;DHT22;53422;49.296;6.900;2023-09-08T03:32:31;19.40;99.90
66568;DHT22;53422;49.296;6.900;2023-09-08T03:34:57;19.40;99.90
66568;DHT22;53422;49.296;6.900;2023-09-08T03:37:22;19.30;99.90
66568;DHT22;53422;49.296;6.900;2023-09-08T03:39:48;19.30;99.90
66568;DHT22;53422;49.296;6.900;2023-09-08T03:42:14;19.30;99.90
66568;DHT22;53422;49.296;6.900;2023-09-08T03:44:39;19.30;99.90
66568;DHT22;53422;49.296;6.900;2023-09-08T03:47:05;19.30;99.90
66568;DHT22;53422;49.296;6.900;2023-09-08T03:49:30;19.30;99.90
66568;DHT22;53422;49.296;6.900;2023-09-08T03:51:56;19.30;99.90
66568;DHT22;53422;49.296;6.900;2023-09-08T03:54:23;19.30;99.90
66568;DHT22;53422;49.296;6.900;2023-09-08T03:56:49;19.30;99.90
66568;DHT22;53422;49.296;6.900;2023-09-08T03:59:14;19.30;99.90
66568;DHT22;53422;49.296;6.900;2023-09-08T04:01:40;19.20;99.90
66568;DHT22;53422;49.296;6.900;2023-09-08T04:04:05;19.20;99.90
66568;DHT22;53422;49.296;6.900;2023-09-08T04:06:31;19.20;99.90
66568;DHT22;53422;49.296;6.900;2023-09-08T04:08:57;19.20;99.90
66568;DHT22;53422;49.296;6.900;2023-09-08T04:11:22;19.20;99.90
66568;DHT22;53422;49.296;6.900;2023-09-08T04:13:48;19.20;99.90
66568;DHT22;53422;49.296;6.900;2023-09-08T04:16:13;19.20;99.90
66568;DHT22;53422;49.296;6.900;2023-09-08T04:18:39;19.20;99.90
66568;DHT22;53422;49.296;6.900;2023-09-08T04:21:06;19.10;99.90
66568;DHT22;53422;49.296;6.900;2023-09-08T04:23:32;19.10;99.90
66568;DHT22;53422;49.296;6.900;2023-09-08T04:25:58;19.10;99.90
66568;DHT22;53422;49.296;6.900;2023-09-08T04:28:24;19.10;99.90
66568;DHT22;53422;49.296;6.900;2023-09-08T04:30:49;19.10;99.90
66568;DHT22;53422;49.296;6.900;2023-09-08T04:33:15;19.10;99.90
66568;DHT22;53422;49.296;6.900;2023-09-08T04:35:41;19.10;99.90
66568;DHT22;53422;49.296;6.900;2023-09-08T04:38:07;19.10;99.90
66568;DHT22;53422;49.296;6.900;2023-09-08T04:40:32;19.10;99.90
66568;DHT22;53422;49.296;6.900;2023-09-08T04:42:58;19.00;99.90
66568;DHT22;53422;49.296;6.900;2023-09-08T04:45:24;19.10;99.90
66568;DHT22;53422;49.296;6.900;2023-09-08T04:47:49;19.00;99.90
66568;DHT22;53422;49.296;6.900;2023-09-08T04:50:15;19.00;99.90
66568;DHT22;53422;49.296;6.900;2023-09-08T04:52:41;19.00;99.90
66568;DHT22;53422;49.296;6.900;2023-09-08T04:55:07;19.00;99.90
66568;DHT22;53422;49.296;6.900;2023-09-08T04:57:33;19.00;99.90
66568;DHT22;53422;49.296;6.900;2023-09-08T04:59:58;19.00;99.90
66568;DHT22;53422;49.296;6.900;2023-09-08T05:02:24;19.00;99.90
66568;DHT22;53422;49.296;6.900;2023-09-08T05:04:49;18.90;99.90
66568;DHT22;53422;49.296;6.900;2023-09-08T05:07:15;18.90;99.90
66568;DHT22;53422;49.296;6.900;2023-09-08T05:09:41;18.90;99.90
66568;DHT22;53422;49.296;6.900;2023-09-08T05:12:07;18.90;99.90
66568;DHT22;53422;49.296;6.900;2023-09-08T05:14:32;18.90;99.90
66568;DHT22;53422;49.296;6.900;2023-09-08T05:16:58;18.90;99.90
66568;DHT22;53422;49.296;6.900;2023-09-08T05:19:24;18.90;99.90
66568;DHT22;53422;49.296;6.900;2023-09-08T05:21:54;18.90;99.90
66568;DHT22;53422;49.296;6.900;2023-09-08T05:24:20;18.90;99.90
66568;DHT22;53422;49.296;6.900;2023-09-08T05:26:46;18.90;99.90
66568;DHT22;53422;49.296;6.900;2023-09-08T05:29:12;18.90;99.90
66568;DHT22;53422;49.296;6.900;2023-09-08T05:31:38;18.90;99.90
66568;DHT22;53422;49.296;6.900;2023-09-08T05:34:04;18.80;99.90
66568;DHT22;53422;49.296;6.900;2023-09-08T05:36:29;18.80;99.90
66568;DHT22;53422;49.296;6.900;2023-09-08T05:38:56;18.90;99.90
66568;DHT22;53422;49.296;6.900;2023-09-08T05:41:22;18.80;99.90
66568;DHT22;53422;49.296;6.900;2023-09-08T05:43:47;18.80;99.90
66568;DHT22;53422;49.296;6.900;2023-09-08T05:46:13;18.90;99.90
66568;DHT22;53422;49.296;6.900;2023-09-08T05:48:39;18.80;99.90
66568;DHT22;53422;49.296;6.900;2023-09-08T05:51:04;18.80;99.90
66568;DHT22;53422;49.296;6.900;2023-09-08T05:53:32;18.90;99.90
66568;DHT22;53422;49.296;6.900;2023-09-08T05:55:58;18.90;99.90
66568;DHT22;53422;49.296;6.900;2023-09-08T05:58:24;18.80;99.90
66568;DHT22;53422;49.296;6.900;2023-09-08T06:00:53;18.80;99.90
66568;DHT22;53422;49.296;6.900;2023-09-08T06:03:19;18.80;99.90
66568;DHT22;53422;49.296;6.900;2023-09-08T06:05:45;18.80;99.90
66568;DHT22;53422;49.296;6.900;2023-09-08T06:08:10;18.80;99.90
66568;DHT22;53422;49.296;6.900;2023-09-08T06:10:36;18.90;99.90
66568;DHT22;53422;49.296;6.900;2023-09-08T06:13:02;18.90;99.90
66568;DHT22;53422;49.296;6.900;2023-09-08T06:15:30;18.90;99.90
66568;DHT22;53422;49.296;6.900;2023-09-08T06:17:56;18.90;99.90
66568;DHT22;53422;49.296;6.900;2023-09-08T06:20:22;18.90;99.90
66568;DHT22;53422;49.296;6.900;2023-09-08T06:22:48;18.90;99.90
66568;DHT22;53422;49.296;6.900;2023-09-08T06:25:14;18.90;99.90
66568;DHT22;53422;49.296;6.900;2023-09-08T06:27:40;18.90;99.90
66568;DHT22;53422;49.296;6.900;2023-09-08T06:30:06;19.00;99.90
66568;DHT22;53422;49.296;6.900;2023-09-08T06:32:31;19.00;99.90
66568;DHT22;53422;49.296;6.900;2023-09-08T06:34:57;19.00;99.90
66568;DHT22;53422;49.296;6.900;2023-09-08T06:37:23;19.00;99.90
66568;DHT22;53422;49.296;6.900;2023-09-08T06:39:48;19.00;99.90
66568;DHT22;53422;49.296;6.900;2023-09-08T06:42:14;19.00;99.90
66568;DHT22;53422;49.296;6.900;2023-09-08T06:44:39;19.10;99.90
66568;DHT22;53422;49.296;6.900;2023-09-08T06:47:05;19.10;99.90
66568;DHT22;53422;49.296;6.900;2023-09-08T06:49:32;19.10;99.90
66568;DHT22;53422;49.296;6.900;2023-09-08T06:51:58;19.10;99.90
66568;DHT22;53422;49.296;6.900;2023-09-08T06:54:24;19.10;99.90
66568;DHT22;53422;49.296;6.900;2023-09-08T06:56:49;19.10;99.90
66568;DHT22;53422;49.296;6.900;2023-09-08T06:59:15;19.10;99.90
66568;DHT22;53422;49.296;6.900;2023-09-08T07:01:40;19.10;99.90
66568;DHT22;53422;49.296;6.900;2023-09-08T07:04:06;19.10;99.90
66568;DHT22;53422;49.296;6.900;2023-09-08T07:06:32;19.20;99.90
66568;DHT22;53422;49.296;6.900;2023-09-08T07:08:57;19.20;99.90
66568;DHT22;53422;49.296;6.900;2023-09-08T07:11:23;19.20;99.90
66568;DHT22;53422;49.296;6.900;2023-09-08T07:13:48;19.20;99.90
66568;DHT22;53422;49.296;6.900;2023-09-08T07:16:14;19.20;99.90
66568;DHT22;53422;49.296;6.900;2023-09-08T07:18:43;19.20;99.90
66568;DHT22;53422;49.296;6.900;2023-09-08T07:21:09;19.30;99.90
66568;DHT22;53422;49.296;6.900;2023-09-08T07:23:34;19.20;99.90
66568;DHT22;53422;49.296;6.900;2023-09-08T07:26:05;19.30;99.90
66568;DHT22;53422;49.296;6.900;2023-09-08T07:28:31;19.30;99.90
66568;DHT22;53422;49.296;6.900;2023-09-08T07:31:05;19.40;99.90
66568;DHT22;53422;49.296;6.900;2023-09-08T07:33:33;19.40;99.90
66568;DHT22;53422;49.296;6.900;2023-09-08T07:36:04;19.40;99.90
66568;DHT22;53422;49.296;6.900;2023-09-08T07:38:31;19.40;99.90
66568;DHT22;53422;49.296;6.900;2023-09-08T07:40:56;19.50;99.90
66568;DHT22;53422;49.296;6.900;2023-09-08T07:43:22;19.60;99.90
66568;DHT22;53422;49.296;6.900;2023-09-08T07:45:48;19.60;99.90
66568;DHT22;53422;49.296;6.900;2023-09-08T07:48:13;19.70;99.90
66568;DHT22;53422;49.296;6.900;2023-09-08T07:50:39;19.80;99.90
66568;DHT22;53422;49.296;6.900;2023-09-08T07:53:05;19.80;99.90
66568;DHT22;53422;49.296;6.900;2023-09-08T07:55:30;20.00;99.90
66568;DHT22;53422;49.296;6.900;2023-09-08T07:58:00;20.00;99.90
66568;DHT22;53422;49.296;6.900;2023-09-08T08:00:26;20.10;99.90
66568;DHT22;53422;49.296;6.900;2023-09-08T08:02:55;20.20;99.90
66568;DHT22;53422;49.296;6.900;2023-09-08T08:05:21;20.30;99.90
66568;DHT22;53422;49.296;6.900;2023-09-08T08:07:47;20.40;99.90
66568;DHT22;53422;49.296;6.900;2023-09-08T08:10:14;20.50;99.90
66568;DHT22;53422;49.296;6.900;2023-09-08T08:12:41;20.60;99.90
66568;DHT22;53422;49.296;6.900;2023-09-08T08:15:08;20.70;99.90
66568;DHT22;53422;49.296;6.900;2023-09-08T08:17:35;20.80;99.90
66568;DHT22;53422;49.296;6.900;2023-09-08T08:20:02;20.90;99.90
66568;DHT22;53422;49.296;6.900;2023-09-08T08:22:35;21.10;99.90
66568;DHT22;53422;49.296;6.900;2023-09-08T08:25:01;21.30;99.90
66568;DHT22;53422;49.296;6.900;2023-09-08T08:27:28;21.70;99.90
66568;DHT22;53422;49.296;6.900;2023-09-08T08:29:56;22.00;99.90
66568;DHT22;53422;49.296;6.900;2023-09-08T08:32:24;22.00;99.90
66568;DHT22;53422;49.296;6.900;2023-09-08T08:34:50;22.00;99.90
66568;DHT22;53422;49.296;6.900;2023-09-08T08:37:16;22.10;99.90
66568;DHT22;53422;49.296;6.900;2023-09-08T08:39:42;22.10;99.90
66568;DHT22;53422;49.296;6.900;2023-09-08T08:42:11;22.40;99.90
66568;DHT22;53422;49.296;6.900;2023-09-08T08:44:38;22.40;99.90
66568;DHT22;53422;49.296;6.900;2023-09-08T08:47:06;22.50;99.90
66568;DHT22;53422;49.296;6.900;2023-09-08T08:49:32;22.60;99.90
66568;DHT22;53422;49.296;6.900;2023-09-08T08:51:59;22.70;99.90
66568;DHT22;53422;49.296;6.900;2023-09-08T08:54:26;22.90;99.90
66568;DHT22;53422;49.296;6.900;2023-09-08T08:56:51;23.00;99.90
66568;DHT22;53422;49.296;6.900;2023-09-08T08:59:18;23.10;99.90
66568;DHT22;53422;49.296;6.900;2023-09-08T09:01:44;23.20;99.90
66568;DHT22;53422;49.296;6.900;2023-09-08T09:04:10;23.30;99.90
66568;DHT22;53422;49.296;6.900;2023-09-08T09:06:37;23.50;99.90
66568;DHT22;53422;49.296;6.900;2023-09-08T09:09:03;23.70;99.90
66568;DHT22;53422;49.296;6.900;2023-09-08T09:11:30;23.70;99.90
66568;DHT22;53422;49.296;6.900;2023-09-08T09:13:57;23.80;99.90
66568;DHT22;53422;49.296;6.900;2023-09-08T09:16:23;23.90;99.90
66568;DHT22;53422;49.296;6.900;2023-09-08T09:18:57;24.10;99.90
66568;DHT22;53422;49.296;6.900;2023-09-08T09:21:23;24.20;99.90
66568;DHT22;53422;49.296;6.900;2023-09-08T09:23:49;24.30;99.90
66568;DHT22;53422;49.296;6.900;2023-09-08T09:26:25;24.40;99.90
66568;DHT22;53422;49.296;6.900;2023-09-08T09:28:51;24.60;99.90
66568;DHT22;53422;49.296;6.900;2023-09-08T09:31:22;24.60;99.20
66568;DHT22;53422;49.296;6.900;2023-09-08T09:34:01;24.70;99.90
66568;DHT22;53422;49.296;6.900;2023-09-08T09:36:28;24.70;99.90
66568;DHT22;53422;49.296;6.900;2023-09-08T09:38:58;24.80;99.90
66568;DHT22;53422;49.296;6.900;2023-09-08T09:41:24;24.80;97.80
66568;DHT22;53422;49.296;6.900;2023-09-08T09:43:49;25.00;97.10
66568;DHT22;53422;49.296;6.900;2023-09-08T09:46:15;25.00;99.00
66568;DHT22;53422;49.296;6.900;2023-09-08T09:48:41;25.20;97.00
66568;DHT22;53422;49.296;6.900;2023-09-08T09:51:16;25.20;97.50
66568;DHT22;53422;49.296;6.900;2023-09-08T09:53:43;25.40;96.80
66568;DHT22;53422;49.296;6.900;2023-09-08T09:56:10;25.40;97.00
66568;DHT22;53422;49.296;6.900;2023-09-08T09:58:37;25.50;96.30
66568;DHT22;53422;49.296;6.900;2023-09-08T10:01:04;25.50;95.20
66568;DHT22;53422;49.296;6.900;2023-09-08T10:03:31;25.60;96.70
66568;DHT22;53422;49.296;6.900;2023-09-08T10:05:59;25.70;94.90
66568;DHT22;53422;49.296;6.900;2023-09-08T10:08:25;25.60;95.70
66568;DHT22;53422;49.296;6.900;2023-09-08T10:10:51;25.60;95.90
66568;DHT22;53422;49.296;6.900;2023-09-08T10:13:26;25.80;97.20
66568;DHT22;53422;49.296;6.900;2023-09-08T10:15:56;25.90;96.70
66568;DHT22;53422;49.296;6.900;2023-09-08T10:18:23;25.90;95.50
66568;DHT22;53422;49.296;6.900;2023-09-08T10:20:52;26.00;95.10
66568;DHT22;53422;49.296;6.900;2023-09-08T10:23:23;26.00;94.40
66568;DHT22;53422;49.296;6.900;2023-09-08T10:25:57;25.90;95.20
66568;DHT22;53422;49.296;6.900;2023-09-08T10:28:25;26.10;94.70
66568;DHT22;53422;49.296;6.900;2023-09-08T10:30:51;26.20;94.40
66568;DHT22;53422;49.296;6.900;2023-09-08T10:33:18;26.40;95.30
66568;DHT22;53422;49.296;6.900;2023-09-08T10:35:45;26.60;93.60
66568;DHT22;53422;49.296;6.900;2023-09-08T10:38:26;26.50;93.80
66568;DHT22;53422;49.296;6.900;2023-09-08T10:40:53;26.40;93.80
66568;DHT22;53422;49.296;6.900;2023-09-08T10:43:20;26.40;94.30
66568;DHT22;53422;49.296;6.900;2023-09-08T10:45:46;26.40;93.70
66568;DHT22;53422;49.296;6.900;2023-09-08T10:48:13;26.50;94.80
66568;DHT22;53422;49.296;6.900;2023-09-08T10:50:41;26.50;92.40
66568;DHT22;53422;49.296;6.900;2023-09-08T10:53:17;26.70;93.50
66568;DHT22;53422;49.296;6.900;2023-09-08T10:55:50;26.70;93.80
66568;DHT22;53422;49.296;6.900;2023-09-08T10:58:34;26.90;94.30
66568;DHT22;53422;49.296;6.900;2023-09-08T11:01:13;27.30;91.00
66568;DHT22;53422;49.296;6.900;2023-09-08T11:06:08;27.10;93.40
66568;DHT22;53422;49.296;6.900;2023-09-08T11:08:38;27.30;91.70
66568;DHT22;53422;49.296;6.900;2023-09-08T11:11:04;27.30;92.40
66568;DHT22;53422;49.296;6.900;2023-09-08T11:13:31;27.20;92.50
66568;DHT22;53422;49.296;6.900;2023-09-08T11:15:58;27.30;91.50
66568;DHT22;53422;49.296;6.900;2023-09-08T11:18:30;27.30;92.70
66568;DHT22;53422;49.296;6.900;2023-09-08T11:20:56;27.20;92.60
66568;DHT22;53422;49.296;6.900;2023-09-08T11:23:23;27.40;92.40
66568;DHT22;53422;49.296;6.900;2023-09-08T11:25:50;27.40;91.50
66568;DHT22;53422;49.296;6.900;2023-09-08T11:28:16;27.40;91.60
66568;DHT22;53422;49.296;6.900;2023-09-08T11:30:42;27.30;92.10
66568;DHT22;53422;49.296;6.900;2023-09-08T11:33:17;27.20;92.80
66568;DHT22;53422;49.296;6.900;2023-09-08T11:35:46;27.30;92.00
66568;DHT22;53422;49.296;6.900;2023-09-08T11:38:12;27.30;91.70
66568;DHT22;53422;49.296;6.900;2023-09-08T11:40:38;27.30;91.40
66568;DHT22;53422;49.296;6.900;2023-09-08T11:43:05;27.50;91.00
66568;DHT22;53422;49.296;6.900;2023-09-08T11:45:34;27.60;91.30
66568;DHT22;53422;49.296;6.900;2023-09-08T11:48:00;27.70;90.60
66568;DHT22;53422;49.296;6.900;2023-09-08T11:50:26;27.70;92.30
66568;DHT22;53422;49.296;6.900;2023-09-08T11:52:53;27.60;90.90
66568;DHT22;53422;49.296;6.900;2023-09-08T11:55:21;27.70;90.80
66568;DHT22;53422;49.296;6.900;2023-09-08T11:57:52;27.60;91.40
66568;DHT22;53422;49.296;6.900;2023-09-08T12:00:20;27.80;90.20
66568;DHT22;53422;49.296;6.900;2023-09-08T12:02:48;27.80;90.70
66568;DHT22;53422;49.296;6.900;2023-09-08T12:07:48;28.10;90.60
66568;DHT22;53422;49.296;6.900;2023-09-08T12:10:13;28.20;87.10
66568;DHT22;53422;49.296;6.900;2023-09-08T12:12:44;28.10;89.90
66568;DHT22;53422;49.296;6.900;2023-09-08T12:15:10;28.00;90.00
66568;DHT22;53422;49.296;6.900;2023-09-08T12:17:52;28.00;88.80
66568;DHT22;53422;49.296;6.900;2023-09-08T12:20:18;28.10;89.10
66568;DHT22;53422;49.296;6.900;2023-09-08T12:22:50;28.20;88.80
66568;DHT22;53422;49.296;6.900;2023-09-08T12:25:17;28.20;90.30
66568;DHT22;53422;49.296;6.900;2023-09-08T12:27:44;28.10;89.20
66568;DHT22;53422;49.296;6.900;2023-09-08T12:30:17;28.10;90.00
66568;DHT22;53422;49.296;6.900;2023-09-08T12:32:46;28.10;90.50
66568;DHT22;53422;49.296;6.900;2023-09-08T12:35:13;28.20;88.10
66568;DHT22;53422;49.296;6.900;2023-09-08T12:37:39;28.30;87.30
66568;DHT22;53422;49.296;6.900;2023-09-08T12:40:05;28.30;88.30
66568;DHT22;53422;49.296;6.900;2023-09-08T12:42:31;28.40;88.40
66568;DHT22;53422;49.296;6.900;2023-09-08T12:44:57;28.30;90.40
66568;DHT22;53422;49.296;6.900;2023-09-08T12:47:23;28.60;84.40
66568;DHT22;53422;49.296;6.900;2023-09-08T12:49:48;28.70;86.00
66568;DHT22;53422;49.296;6.900;2023-09-08T12:52:14;28.70;85.60
66568;DHT22;53422;49.296;6.900;2023-09-08T12:54:40;28.60;86.90
66568;DHT22;53422;49.296;6.900;2023-09-08T12:57:05;28.60;84.50
66568;DHT22;53422;49.296;6.900;2023-09-08T12:59:31;28.90;77.90
66568;DHT22;53422;49.296;6.900;2023-09-08T13:01:56;29.10;82.70
66568;DHT22;53422;49.296;6.900;2023-09-08T13:04:23;28.90;85.20
66568;DHT22;53422;49.296;6.900;2023-09-08T13:06:49;28.80;85.60
66568;DHT22;53422;49.296;6.900;2023-09-08T13:09:15;28.90;85.60
66568;DHT22;53422;49.296;6.900;2023-09-08T13:11:42;28.90;84.70
66568;DHT22;53422;49.296;6.900;2023-09-08T13:14:08;28.90;87.10
66568;DHT22;53422;49.296;6.900;2023-09-08T13:16:33;28.90;84.90
66568;DHT22;53422;49.296;6.900;2023-09-08T13:18:59;28.90;84.60
66568;DHT22;53422;49.296;6.900;2023-09-08T13:21:25;29.00;85.50
66568;DHT22;53422;49.296;6.900;2023-09-08T13:23:50;28.90;85.90
66568;DHT22;53422;49.296;6.900;2023-09-08T13:26:16;28.90;84.20
66568;DHT22;53422;49.296;6.900;2023-09-08T13:28:42;28.90;82.10
66568;DHT22;53422;49.296;6.900;2023-09-08T13:31:08;29.10;79.10
66568;DHT22;53422;49.296;6.900;2023-09-08T13:33:34;29.10;83.40
66568;DHT22;53422;49.296;6.900;2023-09-08T13:35:59;29.20;82.10
66568;DHT22;53422;49.296;6.900;2023-09-08T13:38:25;29.20;81.60
66568;DHT22;53422;49.296;6.900;2023-09-08T13:40:50;29.10;81.60
66568;DHT22;53422;49.296;6.900;2023-09-08T13:43:16;29.20;80.00
66568;DHT22;53422;49.296;6.900;2023-09-08T13:45:42;29.20;80.90
66568;DHT22;53422;49.296;6.900;2023-09-08T13:48:08;29.30;76.70
66568;DHT22;53422;49.296;6.900;2023-09-08T13:50:34;29.40;77.90
66568;DHT22;53422;49.296;6.900;2023-09-08T13:53:00;29.40;73.90
66568;DHT22;53422;49.296;6.900;2023-09-08T13:55:25;29.40;79.80
66568;DHT22;53422;49.296;6.900;2023-09-08T13:57:51;29.40;79.50
66568;DHT22;53422;49.296;6.900;2023-09-08T14:00:17;29.20;75.50
66568;DHT22;53422;49.296;6.900;2023-09-08T14:02:43;29.30;77.40
66568;DHT22;53422;49.296;6.900;2023-09-08T14:05:09;29.50;71.40
66568;DHT22;53422;49.296;6.900;2023-09-08T14:07:35;29.70;67.10
66568;DHT22;53422;49.296;6.900;2023-09-08T14:10:01;29.80;68.80
66568;DHT22;53422;49.296;6.900;2023-09-08T14:12:27;29.70;77.60
66568;DHT22;53422;49.296;6.900;2023-09-08T14:14:52;29.70;78.10
66568;DHT22;53422;49.296;6.900;2023-09-08T14:17:18;29.70;67.90
66568;DHT22;53422;49.296;6.900;2023-09-08T14:19:43;29.70;76.10
66568;DHT22;53422;49.296;6.900;2023-09-08T14:22:09;29.60;77.60
66568;DHT22;53422;49.296;6.900;2023-09-08T14:24:35;29.70;73.90
66568;DHT22;53422;49.296;6.900;2023-09-08T14:27:00;29.70;67.60
66568;DHT22;53422;49.296;6.900;2023-09-08T14:29:26;29.80;67.90
66568;DHT22;53422;49.296;6.900;2023-09-08T14:31:51;29.80;74.70
66568;DHT22;53422;49.296;6.900;2023-09-08T14:34:17;29.70;75.50
66568;DHT22;53422;49.296;6.900;2023-09-08T14:36:44;29.70;73.80
66568;DHT22;53422;49.296;6.900;2023-09-08T14:39:09;29.60;73.10
66568;DHT22;53422;49.296;6.900;2023-09-08T14:41:35;29.70;64.60
66568;DHT22;53422;49.296;6.900;2023-09-08T14:44:00;29.70;67.90
66568;DHT22;53422;49.296;6.900;2023-09-08T14:46:26;29.70;74.60
66568;DHT22;53422;49.296;6.900;2023-09-08T14:48:52;29.80;69.00
66568;DHT22;53422;49.296;6.900;2023-09-08T14:51:17;29.80;70.90
66568;DHT22;53422;49.296;6.900;2023-09-08T14:53:43;29.80;65.00
66568;DHT22;53422;49.296;6.900;2023-09-08T14:56:08;29.70;68.80
66568;DHT22;53422;49.296;6.900;2023-09-08T14:58:34;29.60;65.70
66568;DHT22;53422;49.296;6.900;2023-09-08T15:01:01;29.50;65.50
66568;DHT22;53422;49.296;6.900;2023-09-08T15:03:35;29.60;65.90
66568;DHT22;53422;49.296;6.900;2023-09-08T15:06:01;29.80;64.20
66568;DHT22;53422;49.296;6.900;2023-09-08T15:08:28;30.00;64.10
66568;DHT22;53422;49.296;6.900;2023-09-08T15:10:53;30.00;62.00
66568;DHT22;53422;49.296;6.900;2023-09-08T15:13:19;29.80;60.60
66568;DHT22;53422;49.296;6.900;2023-09-08T15:15:45;29.90;62.90
66568;DHT22;53422;49.296;6.900;2023-09-08T15:18:10;29.80;61.10
66568;DHT22;53422;49.296;6.900;2023-09-08T15:20:36;29.50;61.50
66568;DHT22;53422;49.296;6.900;2023-09-08T15:23:02;29.50;60.70
66568;DHT22;53422;49.296;6.900;2023-09-08T15:25:28;29.30;63.00
66568;DHT22;53422;49.296;6.900;2023-09-08T15:27:54;29.40;59.60
66568;DHT22;53422;49.296;6.900;2023-09-08T15:30:20;29.60;60.00
66568;DHT22;53422;49.296;6.900;2023-09-08T15:32:45;29.40;57.90